Time;durP1;ratioP1;P1;durP2;ratioP2;P2;SDS_P1;SDS_P2;PMS_P1;PMS_P2;Temp;Humidity;BMP_temperature;BMP_pressure;BME280_temperature;BME280_humidity;BME280_pressure;Samples;Min_cycle;Max_cycle;Signal;HPM_P1;HPM_P2
2022/03/20 00:01:49;;;;;;;10.97;9.70;;;4.30;99.90;;;;;;5093948;28;20957;-76
2022/03/20 00:04:37;;;;;;;14.37;10.00;;;4.30;99.90;;;;;;5086997;28;20567;-76
2022/03/20 00:07:26;;;;;;;12.73;10.53;;;4.30;99.90;;;;;;5098037;28;20448;-75
2022/03/20 00:10:15;;;;;;;12.80;10.83;;;4.30;99.90;;;;;;5094728;28;20479;-75
2022/03/20 00:13:07;;;;;;;12.63;10.47;;;4.20;99.90;;;;;;5098621;28;20460;-75
2022/03/20 00:15:57;;;;;;;11.80;10.60;;;4.20;99.90;;;;;;5088498;28;20473;-75
2022/03/20 00:18:45;;;;;;;12.90;10.50;;;4.20;99.90;;;;;;5099138;28;20458;-75
2022/03/20 00:21:33;;;;;;;14.93;10.53;;;4.20;99.90;;;;;;5097292;28;20552;-74
2022/03/20 00:24:21;;;;;;;15.90;10.23;;;4.10;99.90;;;;;;5095777;28;21163;-75
2022/03/20 00:27:12;;;;;;;13.70;11.50;;;4.10;99.90;;;;;;5096858;28;20448;-75
2022/03/20 00:30:01;;;;;;;13.40;11.27;;;4.10;99.90;;;;;;5095806;28;20445;-75
2022/03/20 00:32:49;;;;;;;13.97;12.30;;;4.00;99.90;;;;;;5099291;28;20494;-74
2022/03/20 00:35:38;;;;;;;16.37;12.80;;;4.00;99.90;;;;;;5095006;27;20543;-74
2022/03/20 00:38:26;;;;;;;17.53;12.07;;;4.00;99.90;;;;;;5096283;28;20440;-75
2022/03/20 00:41:14;;;;;;;13.53;12.03;;;3.90;99.90;;;;;;5090838;27;20452;-75
2022/03/20 00:44:03;;;;;;;14.17;12.63;;;3.90;99.90;;;;;;5094300;27;20591;-76
2022/03/20 00:46:53;;;;;;;15.03;12.50;;;3.90;99.90;;;;;;5093382;28;21026;-76
2022/03/20 00:49:42;;;;;;;16.77;13.60;;;3.80;99.90;;;;;;5091639;28;20550;-76
2022/03/20 00:52:32;;;;;;;17.97;14.37;;;3.90;99.90;;;;;;5096560;27;21052;-76
2022/03/20 00:55:20;;;;;;;17.20;12.77;;;3.90;99.90;;;;;;5093769;27;20524;-75
2022/03/20 00:58:10;;;;;;;14.83;13.30;;;3.80;99.90;;;;;;5095818;28;20590;-75
2022/03/20 01:00:58;;;;;;;19.20;14.07;;;3.80;99.90;;;;;;5095112;28;20979;-76
2022/03/20 01:03:48;;;;;;;18.27;14.57;;;3.70;99.90;;;;;;5090978;28;20491;-75
2022/03/20 01:06:36;;;;;;;16.17;13.73;;;3.70;99.90;;;;;;5090997;28;20466;-76
2022/03/20 01:09:24;;;;;;;17.57;14.17;;;3.70;99.90;;;;;;5092998;28;20481;-76
2022/03/20 01:12:14;;;;;;;15.00;13.33;;;3.70;99.90;;;;;;5095380;28;20547;-77
2022/03/20 01:15:05;;;;;;;16.70;13.40;;;3.70;99.90;;;;;;5088412;28;20796;-77
2022/03/20 01:17:54;;;;;;;19.00;14.90;;;3.70;99.90;;;;;;5097445;28;20457;-75
2022/03/20 01:20:43;;;;;;;16.73;13.40;;;3.70;99.90;;;;;;5094404;28;20567;-76
2022/03/20 01:23:31;;;;;;;16.10;14.00;;;3.70;99.90;;;;;;5095592;28;20564;-77
2022/03/20 01:26:19;;;;;;;17.47;13.67;;;3.70;99.90;;;;;;5095973;28;20476;-77
2022/03/20 01:29:08;;;;;;;21.37;15.53;;;3.70;99.90;;;;;;5097066;28;20453;-77
2022/03/20 01:31:56;;;;;;;18.63;14.63;;;3.70;99.90;;;;;;5095005;28;20530;-78
2022/03/20 01:34:44;;;;;;;17.43;14.37;;;3.70;99.90;;;;;;5090125;27;20554;-77
2022/03/20 01:37:34;;;;;;;17.60;14.20;;;3.70;99.90;;;;;;5096572;28;20464;-76
2022/03/20 01:40:22;;;;;;;18.10;14.37;;;3.70;99.90;;;;;;5097950;28;20544;-76
2022/03/20 01:43:10;;;;;;;18.43;14.80;;;3.70;99.90;;;;;;5088388;27;21015;-75
2022/03/20 01:45:58;;;;;;;18.30;14.80;;;3.70;99.90;;;;;;5095877;28;20509;-76
2022/03/20 01:48:47;;;;;;;17.67;14.87;;;3.70;99.90;;;;;;5096585;28;20475;-76
2022/03/20 01:54:45;;;;;;;18.10;14.50;;;3.70;99.90;;;;;;5092203;28;20586;-76
2022/03/20 01:57:37;;;;;;;18.43;13.93;;;3.70;99.90;;;;;;5095862;28;20544;-76
2022/03/20 02:00:27;;;;;;;15.70;13.33;;;3.70;99.90;;;;;;5095593;28;21158;-75
2022/03/20 02:03:16;;;;;;;17.87;14.53;;;3.70;99.90;;;;;;5090552;28;21896;-77
2022/03/20 02:06:05;;;;;;;17.57;14.37;;;3.70;99.90;;;;;;5094653;28;20485;-77
2022/03/20 02:08:53;;;;;;;19.07;14.70;;;3.70;99.90;;;;;;5096221;28;20464;-79
2022/03/20 02:11:44;;;;;;;19.80;15.00;;;3.60;99.90;;;;;;5097741;28;20479;-79
2022/03/20 02:14:33;;;;;;;22.00;14.63;;;3.70;99.90;;;;;;5093658;28;21037;-76
2022/03/20 02:17:21;;;;;;;17.63;14.73;;;3.60;99.90;;;;;;5093596;28;20830;-78
2022/03/20 02:20:10;;;;;;;17.50;14.13;;;3.60;99.90;;;;;;5090130;28;20525;-78
2022/03/20 02:23:00;;;;;;;18.73;15.10;;;3.60;99.90;;;;;;5095971;28;20995;-80
2022/03/20 02:25:49;;;;;;;16.77;14.70;;;3.60;99.90;;;;;;5101052;27;20552;-78
2022/03/20 02:28:37;;;;;;;19.10;15.33;;;3.60;99.90;;;;;;5101123;28;20562;-77
2022/03/20 02:31:25;;;;;;;18.60;14.57;;;3.60;99.90;;;;;;5110234;28;20558;-78
2022/03/20 02:34:13;;;;;;;18.30;15.60;;;3.60;99.90;;;;;;5102131;28;20476;-77
2022/03/20 02:37:02;;;;;;;17.50;14.90;;;3.60;99.90;;;;;;5091367;28;20560;-76
2022/03/20 02:39:56;;;;;;;19.70;15.00;;;3.60;99.90;;;;;;5088191;28;20480;-76
2022/03/20 02:42:46;;;;;;;16.80;14.37;;;3.60;99.90;;;;;;5093930;28;21053;-76
2022/03/20 02:45:35;;;;;;;18.40;15.60;;;3.60;99.90;;;;;;5084752;28;22386;-75
2022/03/20 02:48:23;;;;;;;19.33;14.70;;;3.60;99.90;;;;;;5091554;28;20552;-77
2022/03/20 02:51:11;;;;;;;18.17;15.97;;;3.50;99.90;;;;;;5094077;27;20495;-76
2022/03/20 02:53:59;;;;;;;17.43;13.80;;;3.50;99.90;;;;;;5085118;27;20862;-77
2022/03/20 02:56:49;;;;;;;21.73;15.60;;;3.50;99.90;;;;;;5095302;28;20606;-76
2022/03/20 02:59:37;;;;;;;21.03;16.00;;;3.50;99.90;;;;;;5090219;28;20920;-75
2022/03/20 03:02:25;;;;;;;17.40;14.60;;;3.50;99.90;;;;;;5087568;28;20985;-75
2022/03/20 03:05:15;;;;;;;18.13;14.83;;;3.50;99.90;;;;;;5089959;28;20483;-76
2022/03/20 03:11:09;;;;;;;19.90;15.37;;;3.40;99.90;;;;;;5088688;27;20452;-78
2022/03/20 03:15:18;;;;;;;16.67;14.87;;;3.40;99.90;;;;;;5086343;28;21029;-76
2022/03/20 03:17:08;;;;;;;20.50;14.70;;;3.40;99.90;;;;;;5093371;28;20512;-77
2022/03/20 03:19:58;;;;;;;18.97;15.67;;;3.40;99.90;;;;;;5091159;28;20985;-76
2022/03/20 03:22:46;;;;;;;18.40;15.40;;;3.40;99.90;;;;;;5087670;28;20543;-77
2022/03/20 03:25:37;;;;;;;18.50;15.70;;;3.40;99.90;;;;;;5093245;28;20475;-77
2022/03/20 03:28:33;;;;;;;17.67;14.67;;;3.40;99.90;;;;;;5090829;28;20959;-76
2022/03/20 03:31:23;;;;;;;20.43;16.47;;;3.50;99.90;;;;;;5093761;28;20543;-76
2022/03/20 03:37:20;;;;;;;19.47;16.40;;;3.30;99.90;;;;;;5091364;28;20552;-76
2022/03/20 03:40:09;;;;;;;20.10;15.53;;;3.30;99.90;;;;;;5093090;28;20513;-76
2022/03/20 03:42:59;;;;;;;21.57;16.80;;;3.30;99.90;;;;;;5093183;28;20449;-76
2022/03/20 03:45:48;;;;;;;18.63;15.80;;;3.30;99.90;;;;;;5091650;28;20475;-76
2022/03/20 03:48:38;;;;;;;19.03;16.53;;;3.30;99.90;;;;;;5092390;28;20491;-76
2022/03/20 03:51:26;;;;;;;20.67;16.37;;;3.30;99.90;;;;;;5089389;28;20475;-76
2022/03/20 03:54:14;;;;;;;19.43;16.10;;;3.30;99.90;;;;;;5090217;28;24132;-76
2022/03/20 03:57:02;;;;;;;19.27;15.63;;;3.30;99.90;;;;;;5092051;28;20589;-76
2022/03/20 03:59:51;;;;;;;21.67;16.07;;;3.30;99.90;;;;;;5088621;28;20540;-76
2022/03/20 04:02:39;;;;;;;18.07;15.80;;;3.20;99.90;;;;;;5093319;28;21010;-76
2022/03/20 04:05:29;;;;;;;20.63;16.80;;;3.20;99.90;;;;;;5088798;28;20542;-76
2022/03/20 04:08:17;;;;;;;18.73;16.13;;;3.20;99.90;;;;;;5091076;28;21220;-75
2022/03/20 04:11:05;;;;;;;19.47;15.53;;;3.20;99.90;;;;;;5097128;27;20552;-76
2022/03/20 04:13:53;;;;;;;18.77;15.23;;;3.20;99.90;;;;;;5099642;28;20531;-75
2022/03/20 04:16:41;;;;;;;20.20;16.53;;;3.20;99.90;;;;;;5097459;28;20483;-75
2022/03/20 04:19:29;;;;;;;20.77;16.60;;;3.10;99.90;;;;;;5096264;28;20570;-75
2022/03/20 04:22:19;;;;;;;24.13;19.23;;;3.10;99.90;;;;;;5097722;28;20913;-78
2022/03/20 04:25:11;;;;;;;23.03;16.97;;;3.10;99.90;;;;;;5094113;28;20522;-79
2022/03/20 04:28:00;;;;;;;17.47;15.10;;;3.10;99.90;;;;;;5096545;28;20651;-76
2022/03/20 04:30:49;;;;;;;20.30;16.10;;;3.00;99.90;;;;;;5098839;28;20456;-76
2022/03/20 04:33:37;;;;;;;25.30;17.87;;;3.00;99.90;;;;;;5096005;28;20471;-76
2022/03/20 04:36:27;;;;;;;19.53;16.10;;;3.00;99.90;;;;;;5090787;28;21171;-76
2022/03/20 04:39:17;;;;;;;22.30;17.27;;;3.00;99.90;;;;;;5092366;27;20580;-77
2022/03/20 04:42:06;;;;;;;20.07;16.33;;;3.00;99.90;;;;;;5092819;28;20547;-75
2022/03/20 04:44:54;;;;;;;19.97;16.17;;;3.00;99.90;;;;;;5097076;27;20511;-76
2022/03/20 05:00:08;;;;;;;21.00;17.20;;;2.90;99.90;;;;;;5091754;28;20455;-76
2022/03/20 05:02:56;;;;;;;20.37;16.97;;;2.90;99.90;;;;;;5094883;28;20488;-77
2022/03/20 05:05:46;;;;;;;22.30;16.80;;;2.90;99.90;;;;;;5096107;28;20492;-76
2022/03/20 05:08:35;;;;;;;20.40;16.97;;;2.80;99.90;;;;;;5092790;28;20561;-75
2022/03/20 05:14:31;;;;;;;20.80;17.53;;;2.90;99.90;;;;;;5094590;28;20541;-77
2022/03/20 05:17:22;;;;;;;20.93;15.83;;;2.80;99.90;;;;;;5094868;27;20472;-76
2022/03/20 05:20:12;;;;;;;24.40;16.67;;;2.80;99.90;;;;;;5094000;28;20546;-75
2022/03/20 05:23:00;;;;;;;21.17;17.10;;;2.80;99.90;;;;;;5093745;28;20461;-75
2022/03/20 05:25:48;;;;;;;23.73;17.67;;;2.80;99.90;;;;;;5116199;28;20500;-75
2022/03/20 05:28:37;;;;;;;22.07;17.07;;;2.70;99.90;;;;;;5110241;28;20488;-77
2022/03/20 05:31:26;;;;;;;19.57;16.73;;;2.70;99.90;;;;;;5095977;28;20464;-76
2022/03/20 05:34:14;;;;;;;22.00;17.10;;;2.70;99.90;;;;;;5091746;28;20743;-75
2022/03/20 05:37:03;;;;;;;20.80;17.20;;;2.70;99.90;;;;;;5095946;28;20476;-76
2022/03/20 05:39:51;;;;;;;21.00;16.97;;;2.70;99.90;;;;;;5096550;28;20460;-76
2022/03/20 05:42:39;;;;;;;25.27;17.40;;;2.70;99.90;;;;;;5089608;28;22610;-76
2022/03/20 05:45:28;;;;;;;20.50;16.90;;;2.70;99.90;;;;;;5094487;28;20956;-79
2022/03/20 05:48:17;;;;;;;20.10;16.23;;;2.70;99.90;;;;;;5098152;28;20525;-77
2022/03/20 05:51:07;;;;;;;22.17;17.70;;;2.70;99.90;;;;;;5097876;28;20981;-77
2022/03/20 05:53:55;;;;;;;21.87;17.63;;;2.80;99.90;;;;;;5090973;28;20578;-77
2022/03/20 05:59:53;;;;;;;21.70;17.37;;;2.80;99.90;;;;;;5096080;28;20515;-76
2022/03/20 06:02:43;;;;;;;22.30;16.70;;;2.80;99.90;;;;;;5096638;28;20448;-76
2022/03/20 06:05:32;;;;;;;20.60;17.03;;;2.80;99.90;;;;;;5094125;28;20476;-75
2022/03/20 06:08:21;;;;;;;21.67;17.10;;;2.80;99.90;;;;;;5094553;28;20452;-76
2022/03/20 06:11:09;;;;;;;22.77;17.57;;;2.80;99.90;;;;;;5097783;28;20538;-75
2022/03/20 06:13:58;;;;;;;24.60;18.47;;;2.80;99.90;;;;;;5094524;28;20476;-77
2022/03/20 06:16:47;;;;;;;21.70;18.10;;;2.80;99.90;;;;;;5099828;28;21010;-77
2022/03/20 06:19:36;;;;;;;20.67;16.90;;;2.80;99.90;;;;;;5097991;27;20822;-76
2022/03/20 06:22:26;;;;;;;21.37;18.30;;;2.90;99.90;;;;;;5097233;28;20542;-75
2022/03/20 06:25:15;;;;;;;21.23;18.03;;;2.90;99.90;;;;;;5096716;28;20912;-76
2022/03/20 06:28:03;;;;;;;21.40;17.30;;;3.00;99.90;;;;;;5094288;28;20462;-76
2022/03/20 06:30:51;;;;;;;21.43;18.23;;;3.00;99.90;;;;;;5097846;28;20448;-76
2022/03/20 06:33:40;;;;;;;21.37;17.10;;;3.00;99.90;;;;;;5095418;28;20484;-76
2022/03/20 06:36:28;;;;;;;21.43;17.93;;;3.00;99.90;;;;;;5093703;28;20485;-76
2022/03/20 06:39:18;;;;;;;21.47;17.90;;;3.10;99.90;;;;;;5097484;28;20496;-75
2022/03/20 06:42:07;;;;;;;21.50;17.47;;;3.10;99.90;;;;;;5099039;28;20544;-76
2022/03/20 06:44:59;;;;;;;20.87;17.77;;;3.30;99.90;;;;;;5090224;28;20488;-76
2022/03/20 06:47:48;;;;;;;20.30;16.13;;;3.80;99.90;;;;;;5094288;28;20501;-76
2022/03/20 06:50:36;;;;;;;20.77;17.83;;;3.90;99.90;;;;;;5090655;28;21269;-75
2022/03/20 06:53:24;;;;;;;18.87;16.60;;;3.90;99.90;;;;;;5087921;28;20472;-76
2022/03/20 06:56:14;;;;;;;19.83;17.10;;;3.80;99.90;;;;;;5085740;27;20491;-76
2022/03/20 06:59:04;;;;;;;20.07;17.30;;;3.80;99.90;;;;;;5087908;28;20457;-78
2022/03/20 07:01:58;;;;;;;21.03;17.70;;;3.80;99.90;;;;;;5090676;28;20967;-73
2022/03/20 07:04:47;;;;;;;18.53;16.40;;;3.80;99.90;;;;;;5081409;28;20485;-73
2022/03/20 07:07:36;;;;;;;22.00;17.57;;;3.80;99.90;;;;;;5086671;28;20484;-73
2022/03/20 07:10:25;;;;;;;21.73;17.97;;;3.80;99.90;;;;;;5078729;28;21164;-73
2022/03/20 07:16:29;;;;;;;19.50;16.60;;;3.90;99.90;;;;;;5082612;28;20464;-73
2022/03/20 07:19:17;;;;;;;21.10;16.87;;;3.90;99.90;;;;;;5088699;28;20452;-71
2022/03/20 07:22:07;;;;;;;19.60;17.57;;;4.00;99.90;;;;;;5088194;28;20445;-72
2022/03/20 07:29:29;;;;;;;20.77;18.20;;;4.00;99.90;;;;;;5088988;28;21137;-72
2022/03/20 07:31:10;;;;;;;20.60;16.60;;;4.20;99.90;;;;;;5077789;28;20643;-72
2022/03/20 07:33:59;;;;;;;17.73;15.80;;;4.30;99.90;;;;;;5084680;28;20513;-72
2022/03/20 07:36:47;;;;;;;19.23;16.73;;;4.30;99.90;;;;;;5086778;28;20531;-71
2022/03/20 07:39:35;;;;;;;18.33;16.33;;;4.40;99.90;;;;;;5091481;28;20606;-69
2022/03/20 07:42:26;;;;;;;19.90;17.20;;;4.50;99.90;;;;;;5095338;28;20521;-69
2022/03/20 07:45:14;;;;;;;20.27;16.27;;;4.50;99.90;;;;;;5095247;28;20601;-69
2022/03/20 07:48:04;;;;;;;20.10;16.50;;;4.60;99.90;;;;;;5090012;28;20502;-70
2022/03/20 07:50:53;;;;;;;20.20;16.17;;;4.70;99.90;;;;;;5090928;28;20504;-69
2022/03/20 07:53:41;;;;;;;17.67;15.67;;;4.80;99.90;;;;;;5086982;28;20490;-69
2022/03/20 07:56:34;;;;;;;18.67;15.87;;;4.90;99.90;;;;;;5091086;28;20586;-69
2022/03/20 07:59:23;;;;;;;19.47;16.53;;;4.90;99.90;;;;;;5086376;28;20464;-70
2022/03/20 08:02:11;;;;;;;18.47;15.87;;;5.00;99.90;;;;;;5087265;28;20672;-70
2022/03/20 08:05:00;;;;;;;18.33;16.13;;;5.10;99.90;;;;;;5079846;28;20845;-69
2022/03/20 08:07:49;;;;;;;18.17;15.70;;;5.20;99.90;;;;;;5078719;28;20444;-70
2022/03/20 08:10:37;;;;;;;19.03;16.60;;;5.30;99.90;;;;;;5078034;28;20451;-72
2022/03/20 08:13:25;;;;;;;19.40;15.70;;;5.40;99.90;;;;;;5082704;28;20564;-68
2022/03/20 08:16:15;;;;;;;21.03;17.03;;;5.50;99.90;;;;;;5080804;28;20578;-69
2022/03/20 08:19:05;;;;;;;18.77;15.50;;;5.60;99.90;;;;;;5107273;28;20911;-68
2022/03/20 08:21:56;;;;;;;18.60;16.10;;;5.70;99.90;;;;;;5098982;28;20514;-69
2022/03/20 08:24:47;;;;;;;17.77;15.80;;;5.70;99.90;;;;;;5084176;28;20484;-70
2022/03/20 08:27:43;;;;;;;19.20;15.97;;;5.80;99.90;;;;;;5082206;28;20444;-70
2022/03/20 08:30:31;;;;;;;17.10;15.17;;;5.90;99.90;;;;;;5078098;28;20455;-71
2022/03/20 08:33:19;;;;;;;17.90;15.60;;;6.00;99.90;;;;;;5085302;28;20550;-71
2022/03/20 08:36:08;;;;;;;19.80;16.20;;;6.00;99.90;;;;;;5081785;28;20471;-71
2022/03/20 08:38:58;;;;;;;17.83;15.80;;;6.10;99.90;;;;;;5084763;28;20503;-71
2022/03/20 08:41:47;;;;;;;19.93;16.10;;;6.20;99.90;;;;;;5083144;28;20488;-71
2022/03/20 08:44:35;;;;;;;17.43;15.67;;;6.30;99.90;;;;;;5076822;28;20483;-69
2022/03/20 08:47:25;;;;;;;20.30;17.60;;;6.40;99.90;;;;;;5072706;28;20464;-69
2022/03/20 08:50:15;;;;;;;22.80;16.63;;;6.50;99.90;;;;;;5085838;28;20490;-69
2022/03/20 08:53:04;;;;;;;18.60;16.80;;;6.60;99.90;;;;;;5082444;28;22909;-69
2022/03/20 08:55:53;;;;;;;17.53;15.70;;;6.60;99.90;;;;;;5089372;28;20505;-69
2022/03/20 08:58:41;;;;;;;19.23;17.23;;;6.80;99.90;;;;;;5084983;28;20511;-70
2022/03/20 09:01:30;;;;;;;18.03;16.17;;;6.80;99.90;;;;;;5071290;27;20460;-69
2022/03/20 09:04:19;;;;;;;18.50;16.50;;;6.90;99.90;;;;;;5062682;27;20870;-70
2022/03/20 09:07:07;;;;;;;17.77;15.90;;;7.00;99.90;;;;;;5072170;28;20971;-70
2022/03/20 09:09:55;;;;;;;18.17;16.27;;;7.10;99.90;;;;;;5078582;28;21247;-71
2022/03/20 09:12:46;;;;;;;18.30;16.50;;;7.20;99.90;;;;;;5086394;28;20727;-70
2022/03/20 09:15:38;;;;;;;21.67;16.40;;;7.30;99.90;;;;;;5075409;28;20475;-70
2022/03/20 09:21:35;;;;;;;19.07;17.07;;;7.40;99.90;;;;;;5089087;28;20992;-69
2022/03/20 09:24:23;;;;;;;18.73;16.80;;;7.50;99.90;;;;;;5094724;28;20566;-69
2022/03/20 09:27:11;;;;;;;19.67;16.90;;;7.60;99.90;;;;;;5106622;28;20524;-69
2022/03/20 09:30:00;;;;;;;17.47;15.80;;;7.60;99.90;;;;;;5105939;27;20861;-70
2022/03/20 09:32:49;;;;;;;18.10;16.10;;;7.70;99.90;;;;;;5078733;27;22612;-70
2022/03/20 09:35:38;;;;;;;19.07;17.07;;;7.80;99.90;;;;;;5082097;28;20553;-70
2022/03/20 09:38:27;;;;;;;21.87;17.90;;;7.80;99.90;;;;;;5087502;28;20472;-70
2022/03/20 09:41:15;;;;;;;20.37;18.30;;;7.90;99.90;;;;;;5078340;28;20456;-70
2022/03/20 09:44:06;;;;;;;22.03;17.90;;;8.00;99.90;;;;;;5087888;28;21059;-74
2022/03/20 09:46:55;;;;;;;18.87;16.87;;;8.10;99.90;;;;;;5082173;27;20451;-70
2022/03/20 09:49:45;;;;;;;20.80;18.67;;;8.30;99.90;;;;;;5072624;27;20448;-70
2022/03/20 09:52:34;;;;;;;20.93;18.83;;;8.30;99.90;;;;;;5093703;27;21000;-70
2022/03/20 09:55:22;;;;;;;20.03;18.03;;;8.40;99.90;;;;;;5098573;28;20560;-70
2022/03/20 09:58:10;;;;;;;21.20;18.80;;;8.50;99.90;;;;;;5099633;28;20445;-70
2022/03/20 10:00:58;;;;;;;22.80;18.70;;;8.60;99.90;;;;;;5092716;28;20480;-70
2022/03/20 10:03:48;;;;;;;21.67;19.30;;;8.60;99.90;;;;;;5096772;28;20491;-70
2022/03/20 10:06:37;;;;;;;21.07;18.83;;;8.70;99.90;;;;;;5098784;28;20996;-70
2022/03/20 10:09:26;;;;;;;21.07;18.13;;;8.80;99.90;;;;;;5097372;28;20559;-70
2022/03/20 10:12:31;;;;;;;21.60;19.27;;;9.00;99.90;;;;;;5096683;28;20505;-70
2022/03/20 10:15:31;;;;;;;21.63;19.33;;;9.10;99.90;;;;;;5094664;28;20996;-69
2022/03/20 10:18:23;;;;;;;20.70;18.50;;;9.10;99.90;;;;;;5096825;28;20811;-70
2022/03/20 10:21:13;;;;;;;20.97;18.67;;;9.20;99.90;;;;;;5096009;28;20555;-69
2022/03/20 10:24:01;;;;;;;22.17;19.50;;;9.30;99.90;;;;;;5098622;28;20485;-70
2022/03/20 10:26:53;;;;;;;21.00;18.80;;;9.40;99.90;;;;;;5095606;28;20456;-70
2022/03/20 10:29:50;;;;;;;20.70;17.47;;;9.50;99.90;;;;;;5097890;28;20459;-70
2022/03/20 10:32:49;;;;;;;20.20;18.20;;;9.60;99.90;;;;;;5096594;28;20507;-70
2022/03/20 10:35:39;;;;;;;21.50;19.30;;;9.70;99.90;;;;;;5096790;28;21016;-69
2022/03/20 10:38:37;;;;;;;22.53;19.10;;;9.90;99.90;;;;;;5096738;28;21438;-70
2022/03/20 10:41:26;;;;;;;21.23;19.10;;;10.00;99.90;;;;;;5094970;28;20579;-70
2022/03/20 10:44:16;;;;;;;21.63;19.33;;;10.00;99.90;;;;;;5095945;28;20487;-70
2022/03/20 10:47:10;;;;;;;20.53;18.53;;;10.10;99.90;;;;;;5087515;28;20453;-70
2022/03/20 10:50:03;;;;;;;21.33;19.13;;;10.20;99.90;;;;;;5090496;28;20957;-70
2022/03/20 10:53:06;;;;;;;23.50;18.53;;;10.40;99.90;;;;;;5083618;28;20519;-70
2022/03/20 10:56:06;;;;;;;20.83;18.63;;;10.50;99.90;;;;;;5089987;28;20510;-70
2022/03/20 10:58:54;;;;;;;21.90;19.60;;;10.60;99.90;;;;;;5093817;28;20475;-71
2022/03/20 11:01:44;;;;;;;20.17;17.20;;;10.80;99.90;;;;;;5085334;28;20469;-70
2022/03/20 11:04:33;;;;;;;20.73;18.57;;;10.90;99.90;;;;;;5092824;28;20481;-70
2022/03/20 11:07:23;;;;;;;20.17;18.17;;;11.10;99.90;;;;;;5102150;28;20546;-71
2022/03/20 11:10:14;;;;;;;18.57;16.53;;;11.20;99.90;;;;;;5104571;28;20449;-70
2022/03/20 11:13:05;;;;;;;19.20;17.27;;;11.30;99.90;;;;;;5096185;28;20471;-70
2022/03/20 11:15:56;;;;;;;20.73;18.60;;;11.40;99.90;;;;;;5089227;28;20680;-71
2022/03/20 11:18:48;;;;;;;21.83;18.63;;;11.60;99.90;;;;;;5090228;28;20820;-70
2022/03/20 11:21:37;;;;;;;19.83;17.97;;;11.70;99.90;;;;;;5078310;28;21007;-70
2022/03/20 11:24:26;;;;;;;21.03;17.83;;;11.90;99.90;;;;;;5082075;28;20543;-70
2022/03/20 11:27:19;;;;;;;19.13;17.13;;;12.00;99.90;;;;;;5078336;28;20531;-70
2022/03/20 11:30:09;;;;;;;20.87;18.73;;;12.10;99.90;;;;;;5076266;28;20444;-70
2022/03/20 11:33:00;;;;;;;20.60;18.40;;;12.30;99.90;;;;;;5077030;28;20479;-71
2022/03/20 11:35:48;;;;;;;18.90;17.10;;;12.30;99.90;;;;;;5077800;27;20482;-71
2022/03/20 11:38:37;;;;;;;18.93;16.93;;;12.40;99.90;;;;;;5088786;28;20488;-70
2022/03/20 11:41:25;;;;;;;19.50;17.60;;;12.50;99.90;;;;;;5084571;28;20493;-70
2022/03/20 11:44:15;;;;;;;20.10;18.03;;;12.60;99.90;;;;;;5083516;28;20484;-69
2022/03/20 11:47:27;;;;;;;18.97;16.00;;;12.70;99.90;;;;;;5084888;28;21055;-69
2022/03/20 11:50:19;;;;;;;20.77;18.60;;;12.90;99.90;;;;;;5084483;28;20448;-70
2022/03/20 11:53:09;;;;;;;21.00;18.90;;;13.30;99.90;;;;;;5083164;28;20480;-70
2022/03/20 11:55:58;;;;;;;23.47;20.87;;;13.70;99.90;;;;;;5076129;28;20472;-71
2022/03/20 11:58:47;;;;;;;20.13;18.17;;;14.20;99.90;;;;;;5080280;28;20540;-71
2022/03/20 12:02:01;;;;;;;23.50;20.50;;;14.60;99.10;;;;;;5074329;28;20598;-71
2022/03/20 12:05:02;;;;;;;20.63;18.63;;;15.00;99.90;;;;;;5076130;28;20532;-70
2022/03/20 12:07:57;;;;;;;27.77;25.10;;;15.40;96.60;;;;;;5074091;28;20455;-71
2022/03/20 12:10:58;;;;;;;23.53;21.33;;;15.40;93.90;;;;;;5084942;28;20459;-70
2022/03/20 12:13:54;;;;;;;41.80;38.20;;;15.50;92.20;;;;;;5084064;28;20565;-69
2022/03/20 12:16:59;;;;;;;23.70;21.47;;;15.80;93.20;;;;;;5083885;28;20452;-70
2022/03/20 12:19:49;;;;;;;23.30;19.63;;;16.00;90.30;;;;;;5085802;28;20492;-70
2022/03/20 12:22:39;;;;;;;22.10;19.90;;;16.00;89.10;;;;;;5087786;28;20967;-70
2022/03/20 12:25:43;;;;;;;24.37;21.83;;;16.10;87.40;;;;;;5090680;28;20487;-70
2022/03/20 12:28:32;;;;;;;21.40;19.37;;;16.10;82.40;;;;;;5090904;28;20445;-70
2022/03/20 12:31:26;;;;;;;20.93;18.97;;;16.00;82.10;;;;;;5089671;27;20448;-70
2022/03/20 12:34:18;;;;;;;21.33;19.27;;;16.00;80.80;;;;;;5070343;28;20484;-70
2022/03/20 12:37:37;;;;;;;20.70;18.60;;;16.00;81.00;;;;;;5091784;28;20477;-70
2022/03/20 12:40:28;;;;;;;19.77;17.73;;;15.90;80.60;;;;;;5088918;28;20475;-70
2022/03/20 12:43:35;;;;;;;19.33;17.30;;;15.80;80.20;;;;;;5087589;28;20555;-70
2022/03/20 12:46:23;;;;;;;19.40;17.70;;;15.70;81.30;;;;;;5087796;28;20501;-71
2022/03/20 12:49:17;;;;;;;20.27;18.23;;;16.00;80.40;;;;;;5092655;27;20466;-70
2022/03/20 12:52:07;;;;;;;20.87;18.87;;;16.10;76.90;;;;;;5090791;28;20987;-70
2022/03/20 12:54:57;;;;;;;19.83;17.73;;;16.00;75.10;;;;;;5085739;28;20954;-70
2022/03/20 12:57:48;;;;;;;19.60;17.80;;;15.90;75.00;;;;;;5089370;28;20453;-70
2022/03/20 13:00:37;;;;;;;19.27;17.47;;;16.50;77.80;;;;;;5098548;28;20507;-70
2022/03/20 13:03:26;;;;;;;20.50;18.50;;;17.40;69.70;;;;;;5094486;27;20502;-70
2022/03/20 13:06:16;;;;;;;19.70;17.90;;;17.80;68.30;;;;;;5091154;28;20485;-71
2022/03/20 13:09:10;;;;;;;20.60;18.80;;;18.80;69.30;;;;;;5094162;28;20453;-71
2022/03/20 13:12:01;;;;;;;19.40;17.70;;;19.80;63.90;;;;;;5090541;28;20514;-71
2022/03/20 13:14:55;;;;;;;20.43;18.73;;;20.50;64.40;;;;;;5084722;28;20481;-68
2022/03/20 13:17:48;;;;;;;19.33;17.70;;;21.10;60.20;;;;;;5090691;28;21897;-68
2022/03/20 13:20:38;;;;;;;18.50;17.00;;;21.00;60.60;;;;;;5091026;27;20684;-68
2022/03/20 13:23:27;;;;;;;18.60;17.10;;;21.00;57.30;;;;;;5086808;27;20460;-68
2022/03/20 13:26:18;;;;;;;18.90;17.40;;;20.10;56.90;;;;;;5081377;27;20991;-68
2022/03/20 13:29:06;;;;;;;19.20;17.70;;;20.20;59.00;;;;;;5088644;28;20456;-67
2022/03/20 13:32:05;;;;;;;18.10;16.67;;;20.30;55.90;;;;;;5084088;27;20551;-72
2022/03/20 13:34:53;;;;;;;17.90;16.43;;;19.80;54.40;;;;;;5084732;27;20476;-70
2022/03/20 13:37:42;;;;;;;18.88;17.20;;;19.50;57.00;;;;;;5084768;28;20480;-68
2022/03/20 13:40:32;;;;;;;18.33;16.73;;;19.70;57.30;;;;;;5083916;28;20395;-68
2022/03/20 13:43:22;;;;;;;18.50;17.00;;;20.60;57.60;;;;;;5088745;27;20472;-68
2022/03/20 13:46:17;;;;;;;17.80;16.30;;;21.50;55.30;;;;;;5080418;28;20484;-69
2022/03/20 13:49:08;;;;;;;18.67;17.10;;;20.40;49.90;;;;;;5093718;28;20848;-69
2022/03/20 13:51:57;;;;;;;17.50;16.13;;;20.20;52.40;;;;;;5081180;28;20960;-70
2022/03/20 13:55:04;;;;;;;17.70;16.17;;;20.40;56.80;;;;;;5085367;27;20484;-69
2022/03/20 13:57:54;;;;;;;18.27;16.67;;;20.70;55.50;;;;;;5081748;28;20495;-69
2022/03/20 14:00:44;;;;;;;18.03;16.43;;;20.70;55.70;;;;;;5087166;27;20476;-68
2022/03/20 14:03:32;;;;;;;17.43;15.97;;;20.40;51.10;;;;;;5083042;27;20724;-68
2022/03/20 14:06:24;;;;;;;18.30;16.60;;;19.90;52.70;;;;;;5076485;28;20468;-72
2022/03/20 14:09:13;;;;;;;17.73;15.90;;;19.30;51.40;;;;;;5080035;27;20493;-72
2022/03/20 14:12:20;;;;;;;17.53;15.93;;;19.10;52.00;;;;;;5084224;28;20464;-72
2022/03/20 14:15:12;;;;;;;17.30;15.80;;;19.00;50.00;;;;;;5085238;28;20468;-72
2022/03/20 14:18:12;;;;;;;17.70;16.20;;;18.40;50.30;;;;;;5094892;27;20536;-70
2022/03/20 14:21:11;;;;;;;19.10;17.30;;;17.80;50.60;;;;;;5085298;27;20491;-70
2022/03/20 14:24:03;;;;;;;17.27;15.77;;;17.10;54.40;;;;;;5085455;27;20601;-70
2022/03/20 14:26:58;;;;;;;17.27;15.63;;;16.80;54.20;;;;;;5092381;27;20971;-69
2022/03/20 14:39:27;;;;;;;16.40;14.70;;;15.90;53.60;;;;;;5109976;28;20436;-70
2022/03/20 14:42:26;;;;;;;16.47;14.97;;;15.90;54.30;;;;;;5095962;28;20461;-70
2022/03/20 14:45:16;;;;;;;16.63;14.83;;;15.60;52.90;;;;;;5093847;28;21509;-70
2022/03/20 14:48:05;;;;;;;16.33;14.63;;;15.30;54.90;;;;;;5095597;28;21175;-70
2022/03/20 14:50:53;;;;;;;15.70;14.20;;;15.30;55.10;;;;;;5090602;28;20589;-71
2022/03/20 14:53:41;;;;;;;16.77;15.20;;;15.30;54.00;;;;;;5091727;28;20505;-71
2022/03/20 14:56:32;;;;;;;16.73;14.90;;;15.10;53.00;;;;;;5090822;28;20525;-70
2022/03/20 14:59:20;;;;;;;16.93;15.30;;;14.90;53.70;;;;;;5092201;28;20597;-72
2022/03/20 15:02:10;;;;;;;16.73;15.03;;;15.00;54.90;;;;;;5088565;28;20538;-69
2022/03/20 15:04:58;;;;;;;16.83;15.30;;;15.10;55.90;;;;;;5086435;28;20481;-69
2022/03/20 15:11:23;;;;;;;17.70;15.90;;;15.30;56.10;;;;;;5084286;28;20459;-70
2022/03/20 15:14:03;;;;;;;17.37;15.53;;;15.40;54.40;;;;;;5077810;28;21037;-70
2022/03/20 15:16:52;;;;;;;17.00;15.30;;;15.60;57.50;;;;;;5084368;28;20452;-71
2022/03/20 15:19:41;;;;;;;17.17;15.50;;;15.50;54.40;;;;;;5094994;28;20535;-71
2022/03/20 15:22:29;;;;;;;16.70;15.00;;;15.30;53.70;;;;;;5092352;28;20483;-70